Houston, Texas
Current Conditions -  °F | °C
As of 7:35 AM on Friday 28 Nov 2014 (Local Time) from KMCJ Reporting Station
Clear Clear  
Wind Chill: 50°   Ceiling: Unl
Heat Index: 50°   Visibility: 10mi
Dew Point: 46°   Wind: 9mph
Humidity: 87%   Direction: 90°E
Pressure: 30.31"   Gusts: NA
Location:  29.76°N, 95.37°W
Report Text: KMCJ 281335Z AUTO 09008KT 10SM CLR 10/08 A3031 RMK AO1
Loading
Personal Weather Stations






























Interactive Weather Map New forecast layout! Learn more

10-Day Weather Forecast

Advertisements
Track Severe Weather on mobile